KAFO/AFO METAR and TAF weather

Enter ICAO airport designator
Station Type Date Time Source
KAFO METAR 2020/04/06 16:55 UTC NOAA

KAFO 061655Z AUTO 32005KT 10SM SCT046 BKN049 OVC085 02/00 A2983 RMK AO2


Station Type Date Time Source
KAFO Decoded METAR 2020/04/06 16:55 UTC NOAA

Station name not available
Apr 06, 2020 - 12:55 PM EDT / 2020.04.06 1655 UTC
Wind: from the NW (320 degrees) at 6 MPH (5 KT):0
Visibility: 10 mile(s):0
Sky conditions: overcast
Temperature: 35 F (2 C)
Windchill: 30 F (-1 C):1
Dew Point: 32 F (0 C)
Relative Humidity: 86%
Pressure (altimeter): 29.83 in. Hg (1010 hPa)
ob: KAFO 061655Z AUTO 32005KT 10SM SCT046 BKN049 OVC085 02/00 A2983 RMK AO2
cycle: 17

Station Type Date Time Source
KAFO TAF UTC NOAA

Error!

Example: see airport list